Airfield :
LOGIN :

Register | Disclaimer

   EN    FR    IT 

 










Legend :    VFR   Marginal VFR   IFR   Intensive IFR   Very Intensive IFR
Visi :
Ceiling :
>= 8 km
>= 3000ft
5 to 8 km
1000 to 3000 ft
1500m to 5 km
500 to 1000 ft
800 to 1500m
200 to 500 ft
< 800m
< 200 ft
Symbols :   Thunderstorms  Fog  Heavy snow  Heavy precipitations  Wind > 20 kt
SIGMETs :     Misc.  Thunderstorms  Icing  Turbulence  Mountain Waves  Volcanic Ashes







- Airport Elevation : 375 ft
- IATA code : MST


EHBK - Maastricht Aachen

CURRENT METAR :
  • 261255Z AUTO 33005KT 280V020 9999 OVC041 08/02 Q1031 NOSIG

EXPIRED METARs :
  • 261225Z AUTO 31004KT 270V030 9999 SCT028 BKN037 OVC042 08/02 Q1031 NOSIG
  • 261155Z AUTO 30005KT 250V360 9999 FEW027 OVC049 08/02 Q1032 NOSIG
  • 261125Z AUTO 29005KT 260V350 9999 FEW027 SCT030 BKN038 08/02 Q1032 NOSIG
  • 261055Z AUTO 28006KT 230V330 9999 SCT030 BKN036 OVC041 08/02 Q1032 NOSIG
  • 261025Z AUTO 34007KT 280V020 9999 FEW023 BKN044 08/03 Q1032 NOSIG
  • 260955Z AUTO 34006KT 310V010 9999 OVC025 07/02 Q1032 NOSIG

TAF TAF EHBK
Valid from the 26 at 12:00 until the 27 at 18:00 UTC


261118Z 2612/2718 31008KT 9999 BKN030
BECMG 2623/2702 7000 BKN012
PROB40 2701/2709 3000 BR BKN006
BECMG 2707/2710 9999 BKN020
No reported NOTAMs for that airfield.



MET'MAP, your aeronautical weather chart ! - Copyright ORBIFLY December 2007 - Disclaimer

ORBIFLY MET'MAP TEAM :

Programming & Development : Alexandra Zaïnal
Concept & Development : Baudouin d'Aumeries
Co-Development & Prog : Marc-Olivier Méhu
Technical & hardware support : Manuel Goepfert

Contact : metmap@orbifly.com




SOURCES & CREDITS :

   NOAA